sensor_id;sensor_type;location;lat;lon;timestamp;pressure;altitude;pressure_sealevel;temperature
22269;BMP280;11303;50.772;19.670;2023-06-05T00:00:41;99528.31;;;7.33
22269;BMP280;11303;50.772;19.670;2023-06-05T00:02:43;99526.75;;;7.24
22269;BMP280;11303;50.772;19.670;2023-06-05T00:04:45;99528.03;;;7.12
22269;BMP280;11303;50.772;19.670;2023-06-05T00:06:46;99522.94;;;6.98
22269;BMP280;11303;50.772;19.670;2023-06-05T00:08:48;99523.44;;;6.87
22269;BMP280;11303;50.772;19.670;2023-06-05T00:10:50;99529.00;;;6.80
22269;BMP280;11303;50.772;19.670;2023-06-05T00:12:51;99527.59;;;6.74
22269;BMP280;11303;50.772;19.670;2023-06-05T00:14:53;99526.16;;;6.68
22269;BMP280;11303;50.772;19.670;2023-06-05T00:16:55;99519.56;;;6.61
22269;BMP280;11303;50.772;19.670;2023-06-05T00:18:58;99523.19;;;6.60
22269;BMP280;11303;50.772;19.670;2023-06-05T00:21:00;99527.03;;;6.63
22269;BMP280;11303;50.772;19.670;2023-06-05T00:23:02;99522.72;;;6.58
22269;BMP280;11303;50.772;19.670;2023-06-05T00:25:04;99519.66;;;6.56
22269;BMP280;11303;50.772;19.670;2023-06-05T00:27:06;99516.59;;;6.54
22269;BMP280;11303;50.772;19.670;2023-06-05T00:29:08;99526.00;;;6.50
22269;BMP280;11303;50.772;19.670;2023-06-05T00:31:09;99518.59;;;6.43
22269;BMP280;11303;50.772;19.670;2023-06-05T00:33:11;99519.47;;;6.39
22269;BMP280;11303;50.772;19.670;2023-06-05T00:35:13;99515.69;;;6.36
22269;BMP280;11303;50.772;19.670;2023-06-05T00:37:15;99519.78;;;6.37
22269;BMP280;11303;50.772;19.670;2023-06-05T00:39:17;99519.03;;;6.37
22269;BMP280;11303;50.772;19.670;2023-06-05T00:41:22;99516.44;;;6.37
22269;BMP280;11303;50.772;19.670;2023-06-05T00:43:24;99520.25;;;6.39
22269;BMP280;11303;50.772;19.670;2023-06-05T00:45:26;99511.72;;;6.39
22269;BMP280;11303;50.772;19.670;2023-06-05T00:47:27;99519.03;;;6.37
22269;BMP280;11303;50.772;19.670;2023-06-05T00:49:29;99522.19;;;6.34
22269;BMP280;11303;50.772;19.670;2023-06-05T00:51:31;99513.16;;;6.31
22269;BMP280;11303;50.772;19.670;2023-06-05T00:53:34;99525.59;;;6.29
22269;BMP280;11303;50.772;19.670;2023-06-05T00:55:36;99519.19;;;6.26
22269;BMP280;11303;50.772;19.670;2023-06-05T00:57:38;99519.59;;;6.20
22269;BMP280;11303;50.772;19.670;2023-06-05T00:59:40;99524.00;;;6.19
22269;BMP280;11303;50.772;19.670;2023-06-05T01:01:46;99515.28;;;6.15
22269;BMP280;11303;50.772;19.670;2023-06-05T01:03:49;99512.97;;;6.14
22269;BMP280;11303;50.772;19.670;2023-06-05T01:05:51;99514.13;;;6.07
22269;BMP280;11303;50.772;19.670;2023-06-05T01:07:53;99511.94;;;6.01
22269;BMP280;11303;50.772;19.670;2023-06-05T01:09:54;99514.00;;;5.99
22269;BMP280;11303;50.772;19.670;2023-06-05T01:12:06;99512.03;;;5.96
22269;BMP280;11303;50.772;19.670;2023-06-05T01:14:19;99512.41;;;5.89
22269;BMP280;11303;50.772;19.670;2023-06-05T01:16:24;99514.78;;;5.85
22269;BMP280;11303;50.772;19.670;2023-06-05T01:18:32;99519.44;;;5.83
22269;BMP280;11303;50.772;19.670;2023-06-05T01:20:38;99518.50;;;5.79
22269;BMP280;11303;50.772;19.670;2023-06-05T01:22:40;99518.50;;;5.79
22269;BMP280;11303;50.772;19.670;2023-06-05T01:24:42;99520.50;;;5.82
22269;BMP280;11303;50.772;19.670;2023-06-05T01:29:25;99518.41;;;5.84
22269;BMP280;11303;50.772;19.670;2023-06-05T01:31:29;99511.22;;;5.81
22269;BMP280;11303;50.772;19.670;2023-06-05T01:33:46;99516.84;;;5.83
22269;BMP280;11303;50.772;19.670;2023-06-05T01:35:51;99520.22;;;5.84
22269;BMP280;11303;50.772;19.670;2023-06-05T01:37:57;99522.13;;;5.78
22269;BMP280;11303;50.772;19.670;2023-06-05T01:40:00;99517.53;;;5.75
22269;BMP280;11303;50.772;19.670;2023-06-05T01:42:02;99522.97;;;5.74
22269;BMP280;11303;50.772;19.670;2023-06-05T01:44:06;99518.19;;;5.67
22269;BMP280;11303;50.772;19.670;2023-06-05T01:46:10;99523.63;;;5.65
22269;BMP280;11303;50.772;19.670;2023-06-05T01:48:12;99526.50;;;5.64
22269;BMP280;11303;50.772;19.670;2023-06-05T01:50:15;99526.16;;;5.51
22269;BMP280;11303;50.772;19.670;2023-06-05T01:52:17;99522.41;;;5.44
22269;BMP280;11303;50.772;19.670;2023-06-05T01:54:18;99530.47;;;5.37
22269;BMP280;11303;50.772;19.670;2023-06-05T01:56:20;99525.59;;;5.36
22269;BMP280;11303;50.772;19.670;2023-06-05T01:58:26;99523.88;;;5.31
22269;BMP280;11303;50.772;19.670;2023-06-05T02:00:28;99522.84;;;5.32
22269;BMP280;11303;50.772;19.670;2023-06-05T02:02:30;99520.56;;;5.30
22269;BMP280;11303;50.772;19.670;2023-06-05T02:04:31;99510.50;;;5.29
22269;BMP280;11303;50.772;19.670;2023-06-05T02:06:34;99508.75;;;5.24
22269;BMP280;11303;50.772;19.670;2023-06-05T02:08:45;99512.97;;;5.20
22269;BMP280;11303;50.772;19.670;2023-06-05T02:10:47;99515.53;;;5.20
22269;BMP280;11303;50.772;19.670;2023-06-05T02:12:49;99509.31;;;5.21
22269;BMP280;11303;50.772;19.670;2023-06-05T02:14:50;99511.13;;;5.21
22269;BMP280;11303;50.772;19.670;2023-06-05T02:16:52;99507.56;;;5.17
22269;BMP280;11303;50.772;19.670;2023-06-05T02:18:54;99505.59;;;5.13
22269;BMP280;11303;50.772;19.670;2023-06-05T02:20:58;99508.72;;;5.10
22269;BMP280;11303;50.772;19.670;2023-06-05T02:23:00;99512.34;;;5.09
22269;BMP280;11303;50.772;19.670;2023-06-05T02:25:01;99513.66;;;5.07
22269;BMP280;11303;50.772;19.670;2023-06-05T02:27:03;99510.09;;;5.03
22269;BMP280;11303;50.772;19.670;2023-06-05T02:29:05;99511.72;;;4.99
22269;BMP280;11303;50.772;19.670;2023-06-05T02:31:06;99508.38;;;4.98
22269;BMP280;11303;50.772;19.670;2023-06-05T02:33:08;99510.94;;;4.98
22269;BMP280;11303;50.772;19.670;2023-06-05T02:35:10;99512.03;;;4.92
22269;BMP280;11303;50.772;19.670;2023-06-05T02:37:12;99515.19;;;4.89
22269;BMP280;11303;50.772;19.670;2023-06-05T02:39:14;99510.09;;;4.84
22269;BMP280;11303;50.772;19.670;2023-06-05T02:41:17;99509.91;;;4.80
22269;BMP280;11303;50.772;19.670;2023-06-05T02:43:18;99517.63;;;4.80
22269;BMP280;11303;50.772;19.670;2023-06-05T02:45:21;99521.78;;;4.76
22269;BMP280;11303;50.772;19.670;2023-06-05T02:47:22;99512.75;;;4.79
22269;BMP280;11303;50.772;19.670;2023-06-05T02:49:24;99516.28;;;4.83
22269;BMP280;11303;50.772;19.670;2023-06-05T02:51:25;99517.28;;;4.87
22269;BMP280;11303;50.772;19.670;2023-06-05T02:53:27;99514.69;;;4.87
22269;BMP280;11303;50.772;19.670;2023-06-05T02:55:29;99511.84;;;4.88
22269;BMP280;11303;50.772;19.670;2023-06-05T02:57:31;99512.84;;;4.92
22269;BMP280;11303;50.772;19.670;2023-06-05T02:59:34;99519.75;;;4.97
22269;BMP280;11303;50.772;19.670;2023-06-05T03:01:41;99523.84;;;4.98
22269;BMP280;11303;50.772;19.670;2023-06-05T03:03:48;99518.69;;;4.98
22269;BMP280;11303;50.772;19.670;2023-06-05T03:05:50;99516.31;;;5.02
22269;BMP280;11303;50.772;19.670;2023-06-05T03:07:52;99514.66;;;5.11
22269;BMP280;11303;50.772;19.670;2023-06-05T03:10:02;99524.59;;;5.18
22269;BMP280;11303;50.772;19.670;2023-06-05T03:12:04;99517.28;;;5.25
22269;BMP280;11303;50.772;19.670;2023-06-05T03:14:06;99525.13;;;5.33
22269;BMP280;11303;50.772;19.670;2023-06-05T03:16:07;99528.81;;;5.46
22269;BMP280;11303;50.772;19.670;2023-06-05T03:18:09;99519.59;;;5.59
22269;BMP280;11303;50.772;19.670;2023-06-05T03:20:11;99532.13;;;5.66
22269;BMP280;11303;50.772;19.670;2023-06-05T03:22:14;99527.38;;;5.73
22269;BMP280;11303;50.772;19.670;2023-06-05T03:24:15;99521.97;;;5.88
22269;BMP280;11303;50.772;19.670;2023-06-05T03:26:17;99516.81;;;6.02
22269;BMP280;11303;50.772;19.670;2023-06-05T03:28:19;99518.16;;;6.28
22269;BMP280;11303;50.772;19.670;2023-06-05T03:30:21;99526.31;;;6.71
22269;BMP280;11303;50.772;19.670;2023-06-05T03:32:22;99518.16;;;7.14
22269;BMP280;11303;50.772;19.670;2023-06-05T03:34:24;99525.22;;;7.45
22269;BMP280;11303;50.772;19.670;2023-06-05T03:36:27;99512.13;;;7.73
22269;BMP280;11303;50.772;19.670;2023-06-05T03:38:31;99517.13;;;8.09
22269;BMP280;11303;50.772;19.670;2023-06-05T03:40:33;99514.28;;;8.46
22269;BMP280;11303;50.772;19.670;2023-06-05T03:42:35;99515.38;;;8.71
22269;BMP280;11303;50.772;19.670;2023-06-05T03:44:37;99510.03;;;8.93
22269;BMP280;11303;50.772;19.670;2023-06-05T03:46:39;99522.06;;;9.16
22269;BMP280;11303;50.772;19.670;2023-06-05T03:48:40;99514.56;;;9.23
22269;BMP280;11303;50.772;19.670;2023-06-05T03:50:48;99516.50;;;9.35
22269;BMP280;11303;50.772;19.670;2023-06-05T03:52:57;99520.34;;;9.28
22269;BMP280;11303;50.772;19.670;2023-06-05T03:55:05;99512.59;;;9.20
22269;BMP280;11303;50.772;19.670;2023-06-05T03:57:09;99519.16;;;9.17
22269;BMP280;11303;50.772;19.670;2023-06-05T03:59:13;99512.59;;;9.20
22269;BMP280;11303;50.772;19.670;2023-06-05T04:01:20;99512.06;;;9.44
22269;BMP280;11303;50.772;19.670;2023-06-05T04:03:22;99517.34;;;9.65
22269;BMP280;11303;50.772;19.670;2023-06-05T04:05:24;99527.44;;;9.96
22269;BMP280;11303;50.772;19.670;2023-06-05T04:07:25;99517.28;;;10.33
22269;BMP280;11303;50.772;19.670;2023-06-05T04:09:27;99516.78;;;10.61
22269;BMP280;11303;50.772;19.670;2023-06-05T04:11:29;99515.31;;;10.72
22269;BMP280;11303;50.772;19.670;2023-06-05T04:13:31;99509.19;;;10.89
22269;BMP280;11303;50.772;19.670;2023-06-05T04:15:33;99516.00;;;11.27
22269;BMP280;11303;50.772;19.670;2023-06-05T04:17:35;99510.16;;;11.67
22269;BMP280;11303;50.772;19.670;2023-06-05T04:19:38;99510.16;;;11.79
22269;BMP280;11303;50.772;19.670;2023-06-05T04:21:40;99514.38;;;11.96
22269;BMP280;11303;50.772;19.670;2023-06-05T04:23:42;99513.19;;;12.34
22269;BMP280;11303;50.772;19.670;2023-06-05T04:25:44;99511.66;;;12.61
22269;BMP280;11303;50.772;19.670;2023-06-05T04:27:49;99518.31;;;13.03
22269;BMP280;11303;50.772;19.670;2023-06-05T04:29:51;99513.72;;;13.48
22269;BMP280;11303;50.772;19.670;2023-06-05T04:31:54;99501.94;;;13.73
22269;BMP280;11303;50.772;19.670;2023-06-05T04:33:56;99512.72;;;14.07
22269;BMP280;11303;50.772;19.670;2023-06-05T04:35:58;99514.59;;;14.26
22269;BMP280;11303;50.772;19.670;2023-06-05T04:38:01;99520.03;;;14.60
22269;BMP280;11303;50.772;19.670;2023-06-05T04:40:05;99507.72;;;14.83
22269;BMP280;11303;50.772;19.670;2023-06-05T04:42:07;99509.66;;;15.13
22269;BMP280;11303;50.772;19.670;2023-06-05T04:44:16;99512.16;;;15.56
22269;BMP280;11303;50.772;19.670;2023-06-05T04:46:18;99510.50;;;15.74
22269;BMP280;11303;50.772;19.670;2023-06-05T04:48:20;99511.03;;;15.87
22269;BMP280;11303;50.772;19.670;2023-06-05T04:50:26;99515.84;;;16.19
22269;BMP280;11303;50.772;19.670;2023-06-05T04:52:28;99515.53;;;16.65
22269;BMP280;11303;50.772;19.670;2023-06-05T04:54:30;99503.47;;;17.08
22269;BMP280;11303;50.772;19.670;2023-06-05T04:56:32;99511.94;;;17.46
22269;BMP280;11303;50.772;19.670;2023-06-05T04:58:35;99510.91;;;17.72
22269;BMP280;11303;50.772;19.670;2023-06-05T05:00:37;99504.19;;;17.89
22269;BMP280;11303;50.772;19.670;2023-06-05T05:02:41;99509.88;;;18.24
22269;BMP280;11303;50.772;19.670;2023-06-05T05:04:42;99498.25;;;18.28
22269;BMP280;11303;50.772;19.670;2023-06-05T05:06:44;99511.03;;;18.15
22269;BMP280;11303;50.772;19.670;2023-06-05T05:08:48;99498.63;;;18.27
22269;BMP280;11303;50.772;19.670;2023-06-05T05:10:50;99508.41;;;18.33
22269;BMP280;11303;50.772;19.670;2023-06-05T05:12:52;99506.91;;;18.54
22269;BMP280;11303;50.772;19.670;2023-06-05T05:14:53;99508.38;;;19.01
22269;BMP280;11303;50.772;19.670;2023-06-05T05:16:55;99515.91;;;19.03
22269;BMP280;11303;50.772;19.670;2023-06-05T05:18:57;99508.00;;;19.03
22269;BMP280;11303;50.772;19.670;2023-06-05T05:20:58;99506.44;;;19.16
22269;BMP280;11303;50.772;19.670;2023-06-05T05:23:00;99504.88;;;19.37
22269;BMP280;11303;50.772;19.670;2023-06-05T05:25:02;99496.94;;;19.33
22269;BMP280;11303;50.772;19.670;2023-06-05T05:27:05;99498.41;;;19.49
22269;BMP280;11303;50.772;19.670;2023-06-05T05:29:07;99498.25;;;19.77
22269;BMP280;11303;50.772;19.670;2023-06-05T05:31:09;99503.03;;;20.00
22269;BMP280;11303;50.772;19.670;2023-06-05T05:33:11;99502.38;;;20.34
22269;BMP280;11303;50.772;19.670;2023-06-05T05:35:12;99495.66;;;20.26
22269;BMP280;11303;50.772;19.670;2023-06-05T05:37:14;99497.66;;;20.07
22269;BMP280;11303;50.772;19.670;2023-06-05T05:39:16;99501.91;;;20.43
22269;BMP280;11303;50.772;19.670;2023-06-05T05:41:17;99497.81;;;20.80
22269;BMP280;11303;50.772;19.670;2023-06-05T05:43:19;99500.84;;;21.12
22269;BMP280;11303;50.772;19.670;2023-06-05T05:45:21;99495.66;;;21.05
22269;BMP280;11303;50.772;19.670;2023-06-05T05:47:22;99496.03;;;21.04
22269;BMP280;11303;50.772;19.670;2023-06-05T05:49:24;99501.22;;;20.80
22269;BMP280;11303;50.772;19.670;2023-06-05T05:51:26;99495.44;;;20.89
22269;BMP280;11303;50.772;19.670;2023-06-05T05:53:27;99506.16;;;21.40
22269;BMP280;11303;50.772;19.670;2023-06-05T05:55:29;99503.41;;;21.50
22269;BMP280;11303;50.772;19.670;2023-06-05T05:57:31;99504.63;;;21.11
22269;BMP280;11303;50.772;19.670;2023-06-05T05:59:32;99504.28;;;21.09
22269;BMP280;11303;50.772;19.670;2023-06-05T06:01:34;99495.25;;;21.38
22269;BMP280;11303;50.772;19.670;2023-06-05T06:03:35;99502.25;;;21.51
22269;BMP280;11303;50.772;19.670;2023-06-05T06:05:39;99503.78;;;21.49
22269;BMP280;11303;50.772;19.670;2023-06-05T06:07:41;99507.88;;;21.23
22269;BMP280;11303;50.772;19.670;2023-06-05T06:09:44;99507.88;;;21.23
22269;BMP280;11303;50.772;19.670;2023-06-05T06:11:46;99508.81;;;21.40
22269;BMP280;11303;50.772;19.670;2023-06-05T06:13:48;99504.69;;;21.66
22269;BMP280;11303;50.772;19.670;2023-06-05T06:15:50;99510.00;;;21.89
22269;BMP280;11303;50.772;19.670;2023-06-05T06:17:52;99506.41;;;21.79
22269;BMP280;11303;50.772;19.670;2023-06-05T06:19:53;99505.09;;;21.91
22269;BMP280;11303;50.772;19.670;2023-06-05T06:21:55;99508.69;;;22.01
22269;BMP280;11303;50.772;19.670;2023-06-05T06:23:57;99506.38;;;22.07
22269;BMP280;11303;50.772;19.670;2023-06-05T06:25:59;99506.63;;;22.36
22269;BMP280;11303;50.772;19.670;2023-06-05T06:28:01;99510.69;;;22.40
22269;BMP280;11303;50.772;19.670;2023-06-05T06:30:03;99513.53;;;22.73
22269;BMP280;11303;50.772;19.670;2023-06-05T06:32:05;99523.91;;;22.64
22269;BMP280;11303;50.772;19.670;2023-06-05T06:34:07;99518.97;;;22.86
22269;BMP280;11303;50.772;19.670;2023-06-05T06:36:11;99513.91;;;23.12
22269;BMP280;11303;50.772;19.670;2023-06-05T06:38:13;99507.03;;;23.50
22269;BMP280;11303;50.772;19.670;2023-06-05T06:40:15;99512.41;;;23.63
22269;BMP280;11303;50.772;19.670;2023-06-05T06:42:16;99509.34;;;23.81
22269;BMP280;11303;50.772;19.670;2023-06-05T06:44:18;99503.59;;;23.66
22269;BMP280;11303;50.772;19.670;2023-06-05T06:46:20;99501.38;;;23.81
22269;BMP280;11303;50.772;19.670;2023-06-05T06:48:21;99506.91;;;24.03
22269;BMP280;11303;50.772;19.670;2023-06-05T06:50:23;99503.13;;;24.33
22269;BMP280;11303;50.772;19.670;2023-06-05T06:52:25;99501.44;;;24.10
22269;BMP280;11303;50.772;19.670;2023-06-05T06:54:27;99503.69;;;23.79
22269;BMP280;11303;50.772;19.670;2023-06-05T06:56:30;99506.44;;;23.43
22269;BMP280;11303;50.772;19.670;2023-06-05T06:58:31;99505.78;;;23.19
22269;BMP280;11303;50.772;19.670;2023-06-05T07:00:33;99502.63;;;23.60
22269;BMP280;11303;50.772;19.670;2023-06-05T07:02:35;99502.69;;;23.89
22269;BMP280;11303;50.772;19.670;2023-06-05T07:04:38;99495.31;;;23.81
22269;BMP280;11303;50.772;19.670;2023-06-05T07:06:39;99499.66;;;23.58
22269;BMP280;11303;50.772;19.670;2023-06-05T07:08:41;99501.69;;;23.67
22269;BMP280;11303;50.772;19.670;2023-06-05T07:10:43;99500.59;;;23.48
22269;BMP280;11303;50.772;19.670;2023-06-05T07:12:44;99506.03;;;23.61
22269;BMP280;11303;50.772;19.670;2023-06-05T07:14:46;99498.69;;;23.97
22269;BMP280;11303;50.772;19.670;2023-06-05T07:16:48;99504.13;;;24.23
22269;BMP280;11303;50.772;19.670;2023-06-05T07:18:53;99500.78;;;24.06
22269;BMP280;11303;50.772;19.670;2023-06-05T07:20:56;99504.09;;;23.94
22269;BMP280;11303;50.772;19.670;2023-06-05T07:22:57;99514.47;;;24.05
22269;BMP280;11303;50.772;19.670;2023-06-05T07:25:00;99512.88;;;24.07
22269;BMP280;11303;50.772;19.670;2023-06-05T07:27:04;99510.75;;;23.86
22269;BMP280;11303;50.772;19.670;2023-06-05T07:29:06;99507.44;;;23.65
22269;BMP280;11303;50.772;19.670;2023-06-05T07:31:08;99511.41;;;24.06
22269;BMP280;11303;50.772;19.670;2023-06-05T07:33:10;99498.78;;;24.39
22269;BMP280;11303;50.772;19.670;2023-06-05T07:35:29;99494.28;;;24.65
22269;BMP280;11303;50.772;19.670;2023-06-05T07:37:31;99498.81;;;25.20
22269;BMP280;11303;50.772;19.670;2023-06-05T07:39:34;99493.34;;;25.84
22269;BMP280;11303;50.772;19.670;2023-06-05T07:41:35;99499.22;;;26.35
22269;BMP280;11303;50.772;19.670;2023-06-05T07:43:37;99490.94;;;26.20
22269;BMP280;11303;50.772;19.670;2023-06-05T07:45:41;99499.75;;;25.86
22269;BMP280;11303;50.772;19.670;2023-06-05T07:47:43;99513.34;;;25.88
22269;BMP280;11303;50.772;19.670;2023-06-05T07:49:56;99495.78;;;25.43
22269;BMP280;11303;50.772;19.670;2023-06-05T07:51:57;99504.22;;;25.42
22269;BMP280;11303;50.772;19.670;2023-06-05T07:53:59;99497.38;;;25.41
22269;BMP280;11303;50.772;19.670;2023-06-05T07:56:02;99497.13;;;25.61
22269;BMP280;11303;50.772;19.670;2023-06-05T07:58:03;99486.28;;;26.03
22269;BMP280;11303;50.772;19.670;2023-06-05T08:00:05;99484.75;;;26.02
22269;BMP280;11303;50.772;19.670;2023-06-05T08:02:07;99493.84;;;25.91
22269;BMP280;11303;50.772;19.670;2023-06-05T08:04:09;99489.16;;;25.95
22269;BMP280;11303;50.772;19.670;2023-06-05T08:06:14;99484.63;;;26.05
22269;BMP280;11303;50.772;19.670;2023-06-05T08:08:16;99480.38;;;26.08
22269;BMP280;11303;50.772;19.670;2023-06-05T08:10:18;99484.22;;;26.07
22269;BMP280;11303;50.772;19.670;2023-06-05T08:12:20;99486.97;;;25.81
22269;BMP280;11303;50.772;19.670;2023-06-05T08:14:21;99480.72;;;25.97
22269;BMP280;11303;50.772;19.670;2023-06-05T08:16:23;99475.97;;;26.14
22269;BMP280;11303;50.772;19.670;2023-06-05T08:18:25;99478.38;;;26.43
22269;BMP280;11303;50.772;19.670;2023-06-05T08:20:26;99469.47;;;26.15
22269;BMP280;11303;50.772;19.670;2023-06-05T08:22:28;99471.44;;;26.02
22269;BMP280;11303;50.772;19.670;2023-06-05T08:24:30;99469.72;;;26.08
22269;BMP280;11303;50.772;19.670;2023-06-05T08:26:33;99468.28;;;26.16
22269;BMP280;11303;50.772;19.670;2023-06-05T08:28:34;99476.69;;;25.70
22269;BMP280;11303;50.772;19.670;2023-06-05T08:30:36;99469.31;;;25.74
22269;BMP280;11303;50.772;19.670;2023-06-05T08:32:37;99478.34;;;26.12
22269;BMP280;11303;50.772;19.670;2023-06-05T08:34:39;99485.41;;;25.71
22269;BMP280;11303;50.772;19.670;2023-06-05T08:36:41;99477.34;;;25.62
22269;BMP280;11303;50.772;19.670;2023-06-05T08:38:43;99461.00;;;25.38
22269;BMP280;11303;50.772;19.670;2023-06-05T08:40:45;99471.97;;;25.01
22269;BMP280;11303;50.772;19.670;2023-06-05T08:42:52;99465.78;;;24.53
22269;BMP280;11303;50.772;19.670;2023-06-05T08:44:54;99472.16;;;25.07
22269;BMP280;11303;50.772;19.670;2023-06-05T08:47:04;99470.56;;;25.35
22269;BMP280;11303;50.772;19.670;2023-06-05T08:49:10;99477.03;;;25.47
22269;BMP280;11303;50.772;19.670;2023-06-05T08:51:13;99471.34;;;25.10
22269;BMP280;11303;50.772;19.670;2023-06-05T08:53:17;99468.34;;;25.08
22269;BMP280;11303;50.772;19.670;2023-06-05T08:55:22;99476.53;;;25.26
22269;BMP280;11303;50.772;19.670;2023-06-05T08:57:24;99461.38;;;25.84
22269;BMP280;11303;50.772;19.670;2023-06-05T08:59:26;99463.38;;;26.14
22269;BMP280;11303;50.772;19.670;2023-06-05T09:01:28;99460.09;;;26.32
22269;BMP280;11303;50.772;19.670;2023-06-05T09:03:33;99465.84;;;26.31
22269;BMP280;11303;50.772;19.670;2023-06-05T09:05:35;99459.09;;;26.39
22269;BMP280;11303;50.772;19.670;2023-06-05T09:07:37;99463.63;;;26.29
22269;BMP280;11303;50.772;19.670;2023-06-05T09:09:38;99459.59;;;26.25
22269;BMP280;11303;50.772;19.670;2023-06-05T09:11:40;99463.75;;;26.04
22269;BMP280;11303;50.772;19.670;2023-06-05T09:13:45;99455.59;;;26.20
22269;BMP280;11303;50.772;19.670;2023-06-05T09:15:50;99460.25;;;26.60
22269;BMP280;11303;50.772;19.670;2023-06-05T09:18:08;99458.03;;;26.36
22269;BMP280;11303;50.772;19.670;2023-06-05T09:20:23;99452.72;;;26.14
22269;BMP280;11303;50.772;19.670;2023-06-05T09:22:34;99452.66;;;25.83
22269;BMP280;11303;50.772;19.670;2023-06-05T09:24:39;99465.78;;;25.77
22269;BMP280;11303;50.772;19.670;2023-06-05T09:26:55;99460.06;;;25.66
22269;BMP280;11303;50.772;19.670;2023-06-05T09:28:59;99450.44;;;25.82
22269;BMP280;11303;50.772;19.670;2023-06-05T09:31:04;99461.75;;;25.13
22269;BMP280;11303;50.772;19.670;2023-06-05T09:33:09;99453.56;;;24.69
22269;BMP280;11303;50.772;19.670;2023-06-05T09:35:16;99447.19;;;25.04
22269;BMP280;11303;50.772;19.670;2023-06-05T09:37:17;99434.69;;;25.74
22269;BMP280;11303;50.772;19.670;2023-06-05T09:39:19;99439.66;;;26.29
22269;BMP280;11303;50.772;19.670;2023-06-05T09:41:21;99443.31;;;26.54
22269;BMP280;11303;50.772;19.670;2023-06-05T09:43:23;99450.81;;;26.15
22269;BMP280;11303;50.772;19.670;2023-06-05T09:45:41;99454.53;;;25.61
22269;BMP280;11303;50.772;19.670;2023-06-05T09:47:43;99440.91;;;24.73
22269;BMP280;11303;50.772;19.670;2023-06-05T09:49:54;99453.47;;;24.85
22269;BMP280;11303;50.772;19.670;2023-06-05T09:52:01;99448.91;;;24.85
22269;BMP280;11303;50.772;19.670;2023-06-05T09:54:03;99439.91;;;25.18
22269;BMP280;11303;50.772;19.670;2023-06-05T09:56:05;99449.81;;;25.43
22269;BMP280;11303;50.772;19.670;2023-06-05T09:58:11;99455.91;;;25.30
22269;BMP280;11303;50.772;19.670;2023-06-05T10:00:15;99439.97;;;24.92
22269;BMP280;11303;50.772;19.670;2023-06-05T10:02:24;99431.44;;;25.10
22269;BMP280;11303;50.772;19.670;2023-06-05T10:04:28;99433.88;;;25.17
22269;BMP280;11303;50.772;19.670;2023-06-05T10:06:32;99444.75;;;25.58
22269;BMP280;11303;50.772;19.670;2023-06-05T10:08:35;99429.69;;;25.76
22269;BMP280;11303;50.772;19.670;2023-06-05T10:10:37;99427.63;;;25.59
22269;BMP280;11303;50.772;19.670;2023-06-05T10:12:39;99426.19;;;25.19
22269;BMP280;11303;50.772;19.670;2023-06-05T10:14:42;99419.31;;;24.96
22269;BMP280;11303;50.772;19.670;2023-06-05T10:16:46;99417.94;;;25.17
22269;BMP280;11303;50.772;19.670;2023-06-05T10:18:49;99410.56;;;25.69
22269;BMP280;11303;50.772;19.670;2023-06-05T10:20:52;99404.88;;;25.45
22269;BMP280;11303;50.772;19.670;2023-06-05T10:22:55;99406.25;;;24.89
22269;BMP280;11303;50.772;19.670;2023-06-05T10:25:00;99404.31;;;24.90
22269;BMP280;11303;50.772;19.670;2023-06-05T10:27:14;99411.53;;;25.15
22269;BMP280;11303;50.772;19.670;2023-06-05T10:31:52;99407.75;;;24.90
22269;BMP280;11303;50.772;19.670;2023-06-05T10:34:06;99402.28;;;25.06
22269;BMP280;11303;50.772;19.670;2023-06-05T10:38:49;99392.31;;;24.72
22269;BMP280;11303;50.772;19.670;2023-06-05T10:40:53;99383.25;;;24.70
22269;BMP280;11303;50.772;19.670;2023-06-05T10:43:32;99387.47;;;25.18
22269;BMP280;11303;50.772;19.670;2023-06-05T10:45:34;99395.16;;;25.73
22269;BMP280;11303;50.772;19.670;2023-06-05T10:49:38;99384.28;;;25.80
22269;BMP280;11303;50.772;19.670;2023-06-05T10:53:46;99385.81;;;25.46
22269;BMP280;11303;50.772;19.670;2023-06-05T10:55:50;99381.63;;;25.45
22269;BMP280;11303;50.772;19.670;2023-06-05T11:00:06;99378.22;;;25.58
22269;BMP280;11303;50.772;19.670;2023-06-05T11:04:17;99380.72;;;25.52
22269;BMP280;11303;50.772;19.670;2023-06-05T11:06:19;99380.47;;;25.81
22269;BMP280;11303;50.772;19.670;2023-06-05T11:08:22;99383.22;;;26.21
22269;BMP280;11303;50.772;19.670;2023-06-05T11:10:24;99385.19;;;26.39
22269;BMP280;11303;50.772;19.670;2023-06-05T11:12:26;99380.06;;;26.54
22269;BMP280;11303;50.772;19.670;2023-06-05T11:14:47;99375.66;;;26.60
22269;BMP280;11303;50.772;19.670;2023-06-05T11:16:49;99386.00;;;26.49
22269;BMP280;11303;50.772;19.670;2023-06-05T11:18:51;99376.09;;;26.18
22269;BMP280;11303;50.772;19.670;2023-06-05T11:20:57;99384.44;;;26.30
22269;BMP280;11303;50.772;19.670;2023-06-05T11:25:24;99375.84;;;26.26
22269;BMP280;11303;50.772;19.670;2023-06-05T11:27:42;99385.59;;;26.29
22269;BMP280;11303;50.772;19.670;2023-06-05T11:29:44;99380.44;;;26.84
22269;BMP280;11303;50.772;19.670;2023-06-05T11:31:46;99369.63;;;27.61
22269;BMP280;11303;50.772;19.670;2023-06-05T11:33:48;99373.00;;;28.32
22269;BMP280;11303;50.772;19.670;2023-06-05T11:35:50;99370.22;;;28.26
22269;BMP280;11303;50.772;19.670;2023-06-05T11:38:17;99377.09;;;27.39
22269;BMP280;11303;50.772;19.670;2023-06-05T11:40:24;99371.53;;;26.78
22269;BMP280;11303;50.772;19.670;2023-06-05T11:42:26;99354.59;;;26.53
22269;BMP280;11303;50.772;19.670;2023-06-05T11:44:30;99364.78;;;27.13
22269;BMP280;11303;50.772;19.670;2023-06-05T11:46:51;99357.25;;;27.30
22269;BMP280;11303;50.772;19.670;2023-06-05T11:48:53;99355.72;;;27.66
22269;BMP280;11303;50.772;19.670;2023-06-05T11:51:04;99350.84;;;27.46
22269;BMP280;11303;50.772;19.670;2023-06-05T11:53:10;99353.69;;;27.33
22269;BMP280;11303;50.772;19.670;2023-06-05T11:55:17;99355.59;;;27.24
22269;BMP280;11303;50.772;19.670;2023-06-05T11:57:23;99357.09;;;27.34
22269;BMP280;11303;50.772;19.670;2023-06-05T11:59:47;99352.47;;;26.98
22269;BMP280;11303;50.772;19.670;2023-06-05T12:01:49;99364.19;;;26.41
22269;BMP280;11303;50.772;19.670;2023-06-05T12:04:03;99351.72;;;26.29